sensor_id;sensor_type;location;lat;lon;timestamp;P1;durP1;ratioP1;P2;durP2;ratioP2
77748;SDS011;66938;52.084;5.228;2023-02-11T00:00:14;26.7;;;5.7;;
77748;SDS011;66938;52.084;5.228;2023-02-11T00:01:52;22.3;;;5.3;;
77748;SDS011;66938;52.084;5.228;2023-02-11T00:03:27;21.4;;;5.5;;
77748;SDS011;66938;52.084;5.228;2023-02-11T00:08:17;25.2;;;5.5;;
77748;SDS011;66938;52.084;5.228;2023-02-11T00:09:53;20.11;;;6.1;;
77748;SDS011;66938;52.084;5.228;2023-02-11T00:11:29;21.9;;;5.2;;
77748;SDS011;66938;52.084;5.228;2023-02-11T00:14:42;25.0;;;5.6;;
77748;SDS011;66938;52.084;5.228;2023-02-11T00:16:19;23.1;;;5.6;;
77748;SDS011;66938;52.084;5.228;2023-02-11T00:17:56;26.0;;;6.0;;
77748;SDS011;66938;52.084;5.228;2023-02-11T00:21:09;24.1;;;5.8;;
77748;SDS011;66938;52.084;5.228;2023-02-11T00:22:48;24.7;;;5.8;;
77748;SDS011;66938;52.084;5.228;2023-02-11T00:24:24;22.3;;;5.4;;
77748;SDS011;66938;52.084;5.228;2023-02-11T00:27:37;24.0;;;5.7;;
77748;SDS011;66938;52.084;5.228;2023-02-11T00:29:13;26.0;;;5.9;;
77748;SDS011;66938;52.084;5.228;2023-02-11T00:30:53;25.6;;;5.7;;
77748;SDS011;66938;52.084;5.228;2023-02-11T00:32:29;27.7;;;6.1;;
77748;SDS011;66938;52.084;5.228;2023-02-11T00:35:42;21.5;;;5.5;;
77748;SDS011;66938;52.084;5.228;2023-02-11T00:37:18;21.9;;;5.6;;
77748;SDS011;66938;52.084;5.228;2023-02-11T00:38:55;19.41;;;5.2;;
77748;SDS011;66938;52.084;5.228;2023-02-11T00:42:09;21.7;;;5.5;;
77748;SDS011;66938;52.084;5.228;2023-02-11T00:43:49;21.7;;;5.5;;
77748;SDS011;66938;52.084;5.228;2023-02-11T00:45:27;24.9;;;5.2;;
77748;SDS011;66938;52.084;5.228;2023-02-11T00:47:04;27.9;;;6.2;;
77748;SDS011;66938;52.084;5.228;2023-02-11T00:50:17;26.0;;;6.2;;
77748;SDS011;66938;52.084;5.228;2023-02-11T00:51:54;26.1;;;6.2;;
77748;SDS011;66938;52.084;5.228;2023-02-11T00:53:31;24.9;;;6.2;;
77748;SDS011;66938;52.084;5.228;2023-02-11T00:56:44;22.3;;;5.5;;
77748;SDS011;66938;52.084;5.228;2023-02-11T00:58:21;24.4;;;5.6;;
77748;SDS011;66938;52.084;5.228;2023-02-11T00:59:57;25.1;;;6.1;;
77748;SDS011;66938;52.084;5.228;2023-02-11T01:03:10;28.0;;;6.4;;
77748;SDS011;66938;52.084;5.228;2023-02-11T01:04:47;21.1;;;5.8;;
77748;SDS011;66938;52.084;5.228;2023-02-11T01:06:23;24.1;;;5.7;;
77748;SDS011;66938;52.084;5.228;2023-02-11T01:07:59;22.7;;;5.6;;
77748;SDS011;66938;52.084;5.228;2023-02-11T01:11:14;25.9;;;6.2;;
77748;SDS011;66938;52.084;5.228;2023-02-11T01:12:53;24.6;;;5.9;;
77748;SDS011;66938;52.084;5.228;2023-02-11T01:14:29;23.9;;;5.9;;
77748;SDS011;66938;52.084;5.228;2023-02-11T01:17:45;22.4;;;5.8;;
77748;SDS011;66938;52.084;5.228;2023-02-11T01:19:21;22.8;;;5.8;;
77748;SDS011;66938;52.084;5.228;2023-02-11T01:20:57;25.7;;;5.9;;
77748;SDS011;66938;52.084;5.228;2023-02-11T01:24:12;23.0;;;5.7;;
77748;SDS011;66938;52.084;5.228;2023-02-11T01:25:49;22.5;;;5.9;;
77748;SDS011;66938;52.084;5.228;2023-02-11T01:27:26;20.8;;;5.6;;
77748;SDS011;66938;52.084;5.228;2023-02-11T01:29:02;22.9;;;6.2;;
77748;SDS011;66938;52.084;5.228;2023-02-11T01:32:14;23.5;;;5.6;;
77748;SDS011;66938;52.084;5.228;2023-02-11T01:33:50;24.0;;;7.0;;
77748;SDS011;66938;52.084;5.228;2023-02-11T01:35:26;22.5;;;5.9;;
77748;SDS011;66938;52.084;5.228;2023-02-11T01:38:39;23.3;;;5.9;;
77748;SDS011;66938;52.084;5.228;2023-02-11T01:40:16;24.9;;;5.8;;
77748;SDS011;66938;52.084;5.228;2023-02-11T01:41:53;23.0;;;5.9;;
77748;SDS011;66938;52.084;5.228;2023-02-11T01:43:30;23.6;;;5.9;;
77748;SDS011;66938;52.084;5.228;2023-02-11T01:48:44;21.5;;;5.6;;
77748;SDS011;66938;52.084;5.228;2023-02-11T01:50:25;23.3;;;6.3;;
77748;SDS011;66938;52.084;5.228;2023-02-11T01:52:03;19.2;;;5.4;;
77748;SDS011;66938;52.084;5.228;2023-02-11T01:57:56;22.9;;;6.5;;
77748;SDS011;66938;52.084;5.228;2023-02-11T01:59:38;21.6;;;6.0;;
77748;SDS011;66938;52.084;5.228;2023-02-11T02:01:26;20.7;;;5.9;;
77748;SDS011;66938;52.084;5.228;2023-02-11T02:03:08;20.6;;;6.4;;
77748;SDS011;66938;52.084;5.228;2023-02-11T02:04:51;23.3;;;6.4;;
77748;SDS011;66938;52.084;5.228;2023-02-11T02:06:39;21.7;;;6.2;;
77748;SDS011;66938;52.084;5.228;2023-02-11T02:10:13;21.3;;;6.1;;
77748;SDS011;66938;52.084;5.228;2023-02-11T02:12:02;26.1;;;6.6;;
77748;SDS011;66938;52.084;5.228;2023-02-11T02:13:39;28.1;;;6.6;;
77748;SDS011;66938;52.084;5.228;2023-02-11T02:15:19;24.8;;;6.0;;
77748;SDS011;66938;52.084;5.228;2023-02-11T02:17:00;22.5;;;6.2;;
77748;SDS011;66938;52.084;5.228;2023-02-11T02:23:21;22.6;;;6.0;;
77748;SDS011;66938;52.084;5.228;2023-02-11T02:27:14;25.3;;;6.0;;
77748;SDS011;66938;52.084;5.228;2023-02-11T02:30:21;24.8;;;6.5;;
77748;SDS011;66938;52.084;5.228;2023-02-11T02:33:02;24.1;;;6.3;;
77748;SDS011;66938;52.084;5.228;2023-02-11T02:35:01;21.3;;;6.3;;
77748;SDS011;66938;52.084;5.228;2023-02-11T02:36:48;22.0;;;6.5;;
77748;SDS011;66938;52.084;5.228;2023-02-11T02:38:35;22.9;;;6.1;;
77748;SDS011;66938;52.084;5.228;2023-02-11T02:40:18;23.5;;;6.8;;
77748;SDS011;66938;52.084;5.228;2023-02-11T02:43:35;22.0;;;6.9;;
77748;SDS011;66938;52.084;5.228;2023-02-11T02:45:16;26.5;;;6.9;;
77748;SDS011;66938;52.084;5.228;2023-02-11T02:46:53;23.9;;;6.9;;
77748;SDS011;66938;52.084;5.228;2023-02-11T02:48:31;28.0;;;7.8;;
77748;SDS011;66938;52.084;5.228;2023-02-11T02:51:57;29.2;;;7.4;;
77748;SDS011;66938;52.084;5.228;2023-02-11T02:54:01;22.9;;;6.7;;
77748;SDS011;66938;52.084;5.228;2023-02-11T02:56:02;23.6;;;6.8;;
77748;SDS011;66938;52.084;5.228;2023-02-11T02:57:53;22.0;;;7.2;;
77748;SDS011;66938;52.084;5.228;2023-02-11T02:59:45;24.8;;;7.2;;
77748;SDS011;66938;52.084;5.228;2023-02-11T03:01:40;23.9;;;6.6;;
77748;SDS011;66938;52.084;5.228;2023-02-11T03:03:27;24.2;;;7.4;;
77748;SDS011;66938;52.084;5.228;2023-02-11T03:05:13;25.0;;;7.0;;
77748;SDS011;66938;52.084;5.228;2023-02-11T03:08:42;24.1;;;7.2;;
77748;SDS011;66938;52.084;5.228;2023-02-11T03:10:24;22.2;;;7.0;;
77748;SDS011;66938;52.084;5.228;2023-02-11T03:12:04;23.4;;;7.5;;
77748;SDS011;66938;52.084;5.228;2023-02-11T03:13:43;25.9;;;8.31;;
77748;SDS011;66938;52.084;5.228;2023-02-11T03:17:03;24.2;;;7.7;;
77748;SDS011;66938;52.084;5.228;2023-02-11T03:18:43;24.7;;;8.2;;
77748;SDS011;66938;52.084;5.228;2023-02-11T03:20:28;28.8;;;8.9;;
77748;SDS011;66938;52.084;5.228;2023-02-11T03:22:10;27.1;;;9.5;;
77748;SDS011;66938;52.084;5.228;2023-02-11T03:25:33;22.7;;;7.9;;
77748;SDS011;66938;52.084;5.228;2023-02-11T03:27:16;22.9;;;8.81;;
77748;SDS011;66938;52.084;5.228;2023-02-11T03:28:59;26.4;;;9.4;;
77748;SDS011;66938;52.084;5.228;2023-02-11T03:30:44;28.1;;;9.9;;
77748;SDS011;66938;52.084;5.228;2023-02-11T03:32:28;25.9;;;10.21;;
77748;SDS011;66938;52.084;5.228;2023-02-11T03:35:54;27.4;;;10.0;;
77748;SDS011;66938;52.084;5.228;2023-02-11T03:37:37;27.7;;;10.8;;
77748;SDS011;66938;52.084;5.228;2023-02-11T03:39:18;33.1;;;11.4;;
77748;SDS011;66938;52.084;5.228;2023-02-11T03:41:00;27.2;;;10.8;;
77748;SDS011;66938;52.084;5.228;2023-02-11T03:44:20;28.3;;;11.3;;
77748;SDS011;66938;52.084;5.228;2023-02-11T03:46:01;28.2;;;11.2;;
77748;SDS011;66938;52.084;5.228;2023-02-11T03:47:40;23.9;;;10.3;;
77748;SDS011;66938;52.084;5.228;2023-02-11T03:49:22;31.7;;;11.4;;
77748;SDS011;66938;52.084;5.228;2023-02-11T03:52:43;27.0;;;11.3;;
77748;SDS011;66938;52.084;5.228;2023-02-11T03:54:24;29.1;;;12.2;;
77748;SDS011;66938;52.084;5.228;2023-02-11T03:56:05;30.5;;;12.4;;
77748;SDS011;66938;52.084;5.228;2023-02-11T03:57:46;32.21;;;13.0;;
77748;SDS011;66938;52.084;5.228;2023-02-11T04:01:01;29.9;;;12.7;;
77748;SDS011;66938;52.084;5.228;2023-02-11T04:02:41;27.1;;;11.8;;
77748;SDS011;66938;52.084;5.228;2023-02-11T04:04:18;34.21;;;13.3;;
77748;SDS011;66938;52.084;5.228;2023-02-11T04:05:55;27.3;;;11.5;;
77748;SDS011;66938;52.084;5.228;2023-02-11T04:09:08;30.7;;;13.2;;
77748;SDS011;66938;52.084;5.228;2023-02-11T04:10:44;30.6;;;13.2;;
77748;SDS011;66938;52.084;5.228;2023-02-11T04:12:20;30.4;;;13.0;;
77748;SDS011;66938;52.084;5.228;2023-02-11T04:15:33;36.1;;;14.7;;
77748;SDS011;66938;52.084;5.228;2023-02-11T04:17:09;30.7;;;12.9;;
77748;SDS011;66938;52.084;5.228;2023-02-11T04:18:46;30.2;;;13.1;;
77748;SDS011;66938;52.084;5.228;2023-02-11T04:21:58;33.1;;;13.7;;
77748;SDS011;66938;52.084;5.228;2023-02-11T04:23:35;27.8;;;13.2;;
77748;SDS011;66938;52.084;5.228;2023-02-11T04:25:13;34.21;;;13.8;;
77748;SDS011;66938;52.084;5.228;2023-02-11T04:26:49;34.21;;;14.6;;
77748;SDS011;66938;52.084;5.228;2023-02-11T04:30:05;33.6;;;13.6;;
77748;SDS011;66938;52.084;5.228;2023-02-11T04:31:44;30.8;;;13.9;;
77748;SDS011;66938;52.084;5.228;2023-02-11T04:33:22;26.7;;;13.0;;
77748;SDS011;66938;52.084;5.228;2023-02-11T04:36:35;34.9;;;15.2;;
77748;SDS011;66938;52.084;5.228;2023-02-11T04:38:11;28.1;;;13.8;;
77748;SDS011;66938;52.084;5.228;2023-02-11T04:39:48;26.1;;;13.5;;
77748;SDS011;66938;52.084;5.228;2023-02-11T04:41:24;32.6;;;14.1;;
77748;SDS011;66938;52.084;5.228;2023-02-11T04:44:37;30.5;;;14.6;;
77748;SDS011;66938;52.084;5.228;2023-02-11T04:46:13;30.3;;;14.1;;
77748;SDS011;66938;52.084;5.228;2023-02-11T04:47:49;32.0;;;15.3;;
77748;SDS011;66938;52.084;5.228;2023-02-11T04:51:01;30.2;;;14.6;;
77748;SDS011;66938;52.084;5.228;2023-02-11T04:52:38;31.0;;;14.9;;
77748;SDS011;66938;52.084;5.228;2023-02-11T04:54:15;35.6;;;16.5;;
77748;SDS011;66938;52.084;5.228;2023-02-11T04:57:28;27.6;;;15.9;;
77748;SDS011;66938;52.084;5.228;2023-02-11T04:59:04;31.1;;;16.0;;
77748;SDS011;66938;52.084;5.228;2023-02-11T05:00:42;33.4;;;15.9;;
77748;SDS011;66938;52.084;5.228;2023-02-11T05:02:18;33.3;;;16.3;;
77748;SDS011;66938;52.084;5.228;2023-02-11T05:05:32;36.31;;;17.61;;
77748;SDS011;66938;52.084;5.228;2023-02-11T05:07:08;33.71;;;16.0;;
77748;SDS011;66938;52.084;5.228;2023-02-11T05:08:44;33.71;;;16.0;;
77748;SDS011;66938;52.084;5.228;2023-02-11T05:11:56;29.5;;;15.8;;
77748;SDS011;66938;52.084;5.228;2023-02-11T05:13:32;36.81;;;17.41;;
77748;SDS011;66938;52.084;5.228;2023-02-11T05:15:09;35.6;;;18.0;;
77748;SDS011;66938;52.084;5.228;2023-02-11T05:18:21;32.5;;;17.61;;
77748;SDS011;66938;52.084;5.228;2023-02-11T05:19:58;35.6;;;18.61;;
77748;SDS011;66938;52.084;5.228;2023-02-11T05:21:34;34.31;;;17.11;;
77748;SDS011;66938;52.084;5.228;2023-02-11T05:23:10;35.9;;;18.41;;
77748;SDS011;66938;52.084;5.228;2023-02-11T05:26:23;38.6;;;19.7;;
77748;SDS011;66938;52.084;5.228;2023-02-11T05:28:00;34.5;;;18.7;;
77748;SDS011;66938;52.084;5.228;2023-02-11T05:29:37;36.6;;;19.0;;
77748;SDS011;66938;52.084;5.228;2023-02-11T05:32:49;33.8;;;18.8;;
77748;SDS011;66938;52.084;5.228;2023-02-11T05:34:26;36.4;;;18.5;;
77748;SDS011;66938;52.084;5.228;2023-02-11T05:36:04;35.5;;;17.8;;
77748;SDS011;66938;52.084;5.228;2023-02-11T05:39:19;34.0;;;17.11;;
77748;SDS011;66938;52.084;5.228;2023-02-11T05:40:56;33.21;;;17.3;;
77748;SDS011;66938;52.084;5.228;2023-02-11T05:42:32;29.6;;;16.0;;
77748;SDS011;66938;52.084;5.228;2023-02-11T05:44:09;34.81;;;17.3;;
77748;SDS011;66938;52.084;5.228;2023-02-11T05:47:21;32.8;;;16.4;;
77748;SDS011;66938;52.084;5.228;2023-02-11T05:48:57;31.8;;;17.5;;
77748;SDS011;66938;52.084;5.228;2023-02-11T05:50:33;32.6;;;18.2;;
77748;SDS011;66938;52.084;5.228;2023-02-11T05:53:45;35.9;;;18.41;;
77748;SDS011;66938;52.084;5.228;2023-02-11T05:55:23;35.21;;;17.61;;
77748;SDS011;66938;52.084;5.228;2023-02-11T05:56:59;32.5;;;17.5;;
77748;SDS011;66938;52.084;5.228;2023-02-11T06:00:13;34.81;;;18.3;;
77748;SDS011;66938;52.084;5.228;2023-02-11T06:01:50;36.4;;;19.11;;
77748;SDS011;66938;52.084;5.228;2023-02-11T06:03:27;41.3;;;21.0;;
77748;SDS011;66938;52.084;5.228;2023-02-11T06:05:03;40.0;;;20.6;;
77748;SDS011;66938;52.084;5.228;2023-02-11T06:08:15;36.0;;;19.11;;
77748;SDS011;66938;52.084;5.228;2023-02-11T06:09:51;38.21;;;20.5;;
77748;SDS011;66938;52.084;5.228;2023-02-11T06:11:27;37.6;;;19.61;;
77748;SDS011;66938;52.084;5.228;2023-02-11T06:14:40;38.4;;;20.8;;
77748;SDS011;66938;52.084;5.228;2023-02-11T06:16:16;41.3;;;21.9;;
77748;SDS011;66938;52.084;5.228;2023-02-11T06:17:52;40.5;;;20.7;;
77748;SDS011;66938;52.084;5.228;2023-02-11T06:21:05;40.4;;;22.7;;
77748;SDS011;66938;52.084;5.228;2023-02-11T06:22:43;39.31;;;21.5;;
77748;SDS011;66938;52.084;5.228;2023-02-11T06:24:19;39.5;;;22.2;;
77748;SDS011;66938;52.084;5.228;2023-02-11T06:25:59;40.4;;;23.0;;
77748;SDS011;66938;52.084;5.228;2023-02-11T06:29:14;36.0;;;21.1;;
77748;SDS011;66938;52.084;5.228;2023-02-11T06:30:51;39.9;;;22.3;;
77748;SDS011;66938;52.084;5.228;2023-02-11T06:32:27;46.8;;;25.3;;
77748;SDS011;66938;52.084;5.228;2023-02-11T06:35:40;39.9;;;22.4;;
77748;SDS011;66938;52.084;5.228;2023-02-11T06:37:16;38.9;;;22.6;;
77748;SDS011;66938;52.084;5.228;2023-02-11T06:38:52;39.21;;;23.7;;
77748;SDS011;66938;52.084;5.228;2023-02-11T06:42:06;42.1;;;23.4;;
77748;SDS011;66938;52.084;5.228;2023-02-11T06:43:43;38.0;;;22.5;;
77748;SDS011;66938;52.084;5.228;2023-02-11T06:45:19;41.9;;;23.8;;
77748;SDS011;66938;52.084;5.228;2023-02-11T06:46:56;40.1;;;22.4;;
77748;SDS011;66938;52.084;5.228;2023-02-11T06:50:11;40.9;;;23.4;;
77748;SDS011;66938;52.084;5.228;2023-02-11T06:51:49;40.31;;;23.7;;
77748;SDS011;66938;52.084;5.228;2023-02-11T06:53:25;36.71;;;22.0;;
77748;SDS011;66938;52.084;5.228;2023-02-11T06:56:38;39.21;;;23.0;;
77748;SDS011;66938;52.084;5.228;2023-02-11T06:58:16;38.81;;;23.7;;
77748;SDS011;66938;52.084;5.228;2023-02-11T06:59:52;42.5;;;24.1;;
77748;SDS011;66938;52.084;5.228;2023-02-11T07:01:28;38.21;;;23.4;;
77748;SDS011;66938;52.084;5.228;2023-02-11T07:04:41;36.81;;;22.9;;
77748;SDS011;66938;52.084;5.228;2023-02-11T07:06:18;40.4;;;25.5;;
77748;SDS011;66938;52.084;5.228;2023-02-11T07:07:56;37.81;;;22.3;;
77748;SDS011;66938;52.084;5.228;2023-02-11T07:11:10;43.2;;;25.0;;
77748;SDS011;66938;52.084;5.228;2023-02-11T07:12:47;39.6;;;24.3;;
77748;SDS011;66938;52.084;5.228;2023-02-11T07:14:23;42.8;;;25.5;;
77748;SDS011;66938;52.084;5.228;2023-02-11T07:17:41;39.5;;;24.4;;
77748;SDS011;66938;52.084;5.228;2023-02-11T07:19:17;42.0;;;26.1;;
77748;SDS011;66938;52.084;5.228;2023-02-11T07:20:53;44.8;;;26.4;;
77748;SDS011;66938;52.084;5.228;2023-02-11T07:22:30;40.71;;;25.8;;
77748;SDS011;66938;52.084;5.228;2023-02-11T07:25:44;45.1;;;27.6;;
77748;SDS011;66938;52.084;5.228;2023-02-11T07:27:21;46.4;;;28.2;;
77748;SDS011;66938;52.084;5.228;2023-02-11T07:28:57;44.4;;;27.1;;
77748;SDS011;66938;52.084;5.228;2023-02-11T07:32:11;44.1;;;28.0;;
77748;SDS011;66938;52.084;5.228;2023-02-11T07:33:47;40.0;;;25.3;;
77748;SDS011;66938;52.084;5.228;2023-02-11T07:35:24;46.0;;;29.2;;
77748;SDS011;66938;52.084;5.228;2023-02-11T07:37:00;43.1;;;27.4;;
77748;SDS011;66938;52.084;5.228;2023-02-11T07:40:13;45.2;;;28.5;;
77748;SDS011;66938;52.084;5.228;2023-02-11T07:41:50;45.2;;;28.5;;
77748;SDS011;66938;52.084;5.228;2023-02-11T07:43:27;46.0;;;28.6;;
77748;SDS011;66938;52.084;5.228;2023-02-11T07:46:43;46.6;;;29.8;;
77748;SDS011;66938;52.084;5.228;2023-02-11T07:48:19;44.5;;;29.2;;
77748;SDS011;66938;52.084;5.228;2023-02-11T07:49:55;42.7;;;28.9;;
77748;SDS011;66938;52.084;5.228;2023-02-11T07:53:08;42.9;;;27.7;;
77748;SDS011;66938;52.084;5.228;2023-02-11T07:54:44;42.5;;;28.1;;
77748;SDS011;66938;52.084;5.228;2023-02-11T07:56:22;44.7;;;27.2;;
77748;SDS011;66938;52.084;5.228;2023-02-11T07:58:00;45.4;;;28.0;;
77748;SDS011;66938;52.084;5.228;2023-02-11T08:01:12;42.0;;;27.9;;
77748;SDS011;66938;52.084;5.228;2023-02-11T08:02:52;43.9;;;28.1;;
77748;SDS011;66938;52.084;5.228;2023-02-11T08:04:28;44.0;;;29.4;;
77748;SDS011;66938;52.084;5.228;2023-02-11T08:07:42;42.8;;;29.8;;
77748;SDS011;66938;52.084;5.228;2023-02-11T08:09:18;43.4;;;27.6;;
77748;SDS011;66938;52.084;5.228;2023-02-11T08:10:55;43.2;;;29.5;;
77748;SDS011;66938;52.084;5.228;2023-02-11T08:14:07;44.7;;;28.5;;
77748;SDS011;66938;52.084;5.228;2023-02-11T08:15:45;47.1;;;28.8;;
77748;SDS011;66938;52.084;5.228;2023-02-11T08:17:21;43.8;;;29.1;;
77748;SDS011;66938;52.084;5.228;2023-02-11T08:18:58;42.1;;;28.6;;
77748;SDS011;66938;52.084;5.228;2023-02-11T08:22:13;46.5;;;27.4;;
77748;SDS011;66938;52.084;5.228;2023-02-11T08:23:49;39.81;;;28.3;;
77748;SDS011;66938;52.084;5.228;2023-02-11T08:25:26;39.4;;;27.4;;
77748;SDS011;66938;52.084;5.228;2023-02-11T08:28:39;43.4;;;28.4;;
77748;SDS011;66938;52.084;5.228;2023-02-11T08:30:18;41.9;;;28.8;;
77748;SDS011;66938;52.084;5.228;2023-02-11T08:31:54;44.6;;;30.6;;
77748;SDS011;66938;52.084;5.228;2023-02-11T08:33:30;46.5;;;29.5;;
77748;SDS011;66938;52.084;5.228;2023-02-11T08:36:44;43.2;;;29.3;;
77748;SDS011;66938;52.084;5.228;2023-02-11T08:38:22;41.1;;;28.6;;
77748;SDS011;66938;52.084;5.228;2023-02-11T08:39:57;40.31;;;27.5;;
77748;SDS011;66938;52.084;5.228;2023-02-11T08:43:10;46.5;;;30.4;;
77748;SDS011;66938;52.084;5.228;2023-02-11T08:44:46;48.9;;;32.5;;
77748;SDS011;66938;52.084;5.228;2023-02-11T08:46:22;43.6;;;29.3;;
77748;SDS011;66938;52.084;5.228;2023-02-11T08:49:36;39.4;;;29.3;;
77748;SDS011;66938;52.084;5.228;2023-02-11T08:51:14;37.9;;;27.4;;
77748;SDS011;66938;52.084;5.228;2023-02-11T08:52:52;40.0;;;27.2;;
77748;SDS011;66938;52.084;5.228;2023-02-11T08:54:28;41.0;;;27.9;;
77748;SDS011;66938;52.084;5.228;2023-02-11T08:57:45;43.3;;;29.1;;
77748;SDS011;66938;52.084;5.228;2023-02-11T08:59:21;38.9;;;28.1;;
77748;SDS011;66938;52.084;5.228;2023-02-11T09:00:58;39.21;;;28.5;;
77748;SDS011;66938;52.084;5.228;2023-02-11T09:04:10;39.21;;;27.6;;
77748;SDS011;66938;52.084;5.228;2023-02-11T09:05:47;40.5;;;29.3;;
77748;SDS011;66938;52.084;5.228;2023-02-11T09:07:25;43.8;;;29.1;;
77748;SDS011;66938;52.084;5.228;2023-02-11T09:09:03;38.5;;;27.5;;
77748;SDS011;66938;52.084;5.228;2023-02-11T09:12:15;35.81;;;26.3;;
77748;SDS011;66938;52.084;5.228;2023-02-11T09:13:51;38.5;;;28.6;;
77748;SDS011;66938;52.084;5.228;2023-02-11T09:15:27;36.5;;;27.7;;
77748;SDS011;66938;52.084;5.228;2023-02-11T09:18:41;38.21;;;28.3;;
77748;SDS011;66938;52.084;5.228;2023-02-11T09:20:17;37.71;;;26.8;;
77748;SDS011;66938;52.084;5.228;2023-02-11T09:21:54;37.71;;;28.7;;
77748;SDS011;66938;52.084;5.228;2023-02-11T09:25:10;39.81;;;27.0;;
77748;SDS011;66938;52.084;5.228;2023-02-11T09:26:48;36.9;;;28.5;;
77748;SDS011;66938;52.084;5.228;2023-02-11T09:28:25;37.21;;;28.9;;
77748;SDS011;66938;52.084;5.228;2023-02-11T09:30:01;36.81;;;27.6;;
77748;SDS011;66938;52.084;5.228;2023-02-11T09:33:14;38.21;;;27.6;;
77748;SDS011;66938;52.084;5.228;2023-02-11T09:34:51;37.4;;;27.9;;
77748;SDS011;66938;52.084;5.228;2023-02-11T09:36:28;36.81;;;28.3;;
77748;SDS011;66938;52.084;5.228;2023-02-11T09:39:45;35.81;;;27.3;;
77748;SDS011;66938;52.084;5.228;2023-02-11T09:41:26;37.4;;;29.0;;
77748;SDS011;66938;52.084;5.228;2023-02-11T09:43:43;37.21;;;28.0;;
77748;SDS011;66938;52.084;5.228;2023-02-11T09:45:23;36.1;;;26.9;;
77748;SDS011;66938;52.084;5.228;2023-02-11T09:47:02;37.0;;;28.1;;
77748;SDS011;66938;52.084;5.228;2023-02-11T09:50:23;39.1;;;28.6;;
77748;SDS011;66938;52.084;5.228;2023-02-11T09:52:05;37.31;;;28.7;;
77748;SDS011;66938;52.084;5.228;2023-02-11T09:53:48;35.0;;;28.7;;
77748;SDS011;66938;52.084;5.228;2023-02-11T09:55:32;36.5;;;28.0;;
77748;SDS011;66938;52.084;5.228;2023-02-11T09:57:10;38.71;;;29.7;;
77748;SDS011;66938;52.084;5.228;2023-02-11T10:00:24;40.31;;;29.1;;
77748;SDS011;66938;52.084;5.228;2023-02-11T10:02:08;36.0;;;27.6;;
77748;SDS011;66938;52.084;5.228;2023-02-11T10:03:56;37.31;;;28.8;;
77748;SDS011;66938;52.084;5.228;2023-02-11T10:05:42;38.21;;;29.0;;
77748;SDS011;66938;52.084;5.228;2023-02-11T10:09:29;36.0;;;28.6;;
77748;SDS011;66938;52.084;5.228;2023-02-11T10:11:29;38.0;;;28.2;;
77748;SDS011;66938;52.084;5.228;2023-02-11T10:13:20;37.71;;;28.4;;
77748;SDS011;66938;52.084;5.228;2023-02-11T10:15:19;34.1;;;27.2;;
77748;SDS011;66938;52.084;5.228;2023-02-11T10:17:06;39.0;;;28.8;;
77748;SDS011;66938;52.084;5.228;2023-02-11T10:19:02;36.31;;;27.7;;
77748;SDS011;66938;52.084;5.228;2023-02-11T10:20:58;34.31;;;26.4;;
77748;SDS011;66938;52.084;5.228;2023-02-11T10:22:49;37.5;;;27.5;;
77748;SDS011;66938;52.084;5.228;2023-02-11T10:24:28;37.31;;;27.6;;
77748;SDS011;66938;52.084;5.228;2023-02-11T10:27:48;32.71;;;26.1;;
77748;SDS011;66938;52.084;5.228;2023-02-11T10:29:30;35.6;;;26.5;;
77748;SDS011;66938;52.084;5.228;2023-02-11T10:31:15;33.4;;;26.6;;
77748;SDS011;66938;52.084;5.228;2023-02-11T10:32:58;32.1;;;25.1;;
77748;SDS011;66938;52.084;5.228;2023-02-11T10:36:17;33.71;;;25.8;;
77748;SDS011;66938;52.084;5.228;2023-02-11T10:37:55;34.71;;;26.1;;
77748;SDS011;66938;52.084;5.228;2023-02-11T10:39:31;30.9;;;25.0;;
77748;SDS011;66938;52.084;5.228;2023-02-11T10:41:08;31.6;;;25.3;;
77748;SDS011;66938;52.084;5.228;2023-02-11T10:44:29;32.0;;;25.4;;
77748;SDS011;66938;52.084;5.228;2023-02-11T10:46:08;29.9;;;24.6;;
77748;SDS011;66938;52.084;5.228;2023-02-11T10:47:54;32.0;;;24.7;;
77748;SDS011;66938;52.084;5.228;2023-02-11T10:49:33;33.1;;;24.7;;
77748;SDS011;66938;52.084;5.228;2023-02-11T10:52:58;31.5;;;24.8;;
77748;SDS011;66938;52.084;5.228;2023-02-11T10:55:04;32.71;;;24.3;;
77748;SDS011;66938;52.084;5.228;2023-02-11T10:56:52;34.0;;;25.3;;
77748;SDS011;66938;52.084;5.228;2023-02-11T10:58:35;30.7;;;24.9;;
77748;SDS011;66938;52.084;5.228;2023-02-11T11:00:22;29.5;;;23.4;;
77748;SDS011;66938;52.084;5.228;2023-02-11T11:03:58;31.5;;;24.5;;
77748;SDS011;66938;52.084;5.228;2023-02-11T11:05:36;28.4;;;23.3;;
77748;SDS011;66938;52.084;5.228;2023-02-11T11:07:24;28.2;;;22.4;;
77748;SDS011;66938;52.084;5.228;2023-02-11T11:09:03;28.7;;;22.5;;
77748;SDS011;66938;52.084;5.228;2023-02-11T11:12:30;26.6;;;22.0;;
77748;SDS011;66938;52.084;5.228;2023-02-11T11:14:12;26.4;;;21.9;;
77748;SDS011;66938;52.084;5.228;2023-02-11T11:16:31;26.3;;;21.7;;
77748;SDS011;66938;52.084;5.228;2023-02-11T11:18:13;25.4;;;20.7;;
77748;SDS011;66938;52.084;5.228;2023-02-11T11:19:51;22.7;;;19.3;;
77748;SDS011;66938;52.084;5.228;2023-02-11T11:21:29;23.1;;;19.2;;
77748;SDS011;66938;52.084;5.228;2023-02-11T11:24:54;24.6;;;21.0;;
77748;SDS011;66938;52.084;5.228;2023-02-11T11:26:37;24.5;;;19.41;;
77748;SDS011;66938;52.084;5.228;2023-02-11T11:28:18;23.7;;;19.3;;
77748;SDS011;66938;52.084;5.228;2023-02-11T11:30:00;24.2;;;18.41;;
77748;SDS011;66938;52.084;5.228;2023-02-11T11:33:24;22.6;;;18.61;;
77748;SDS011;66938;52.084;5.228;2023-02-11T11:35:16;23.3;;;18.7;;
77748;SDS011;66938;52.084;5.228;2023-02-11T11:36:59;23.3;;;18.91;;
77748;SDS011;66938;52.084;5.228;2023-02-11T11:38:46;21.3;;;17.7;;
77748;SDS011;66938;52.084;5.228;2023-02-11T11:40:32;20.3;;;16.9;;
77748;SDS011;66938;52.084;5.228;2023-02-11T11:44:02;21.4;;;17.61;;
77748;SDS011;66938;52.084;5.228;2023-02-11T11:45:55;22.6;;;17.41;;
77748;SDS011;66938;52.084;5.228;2023-02-11T11:47:34;19.91;;;16.3;;
77748;SDS011;66938;52.084;5.228;2023-02-11T11:49:19;19.0;;;15.1;;
77748;SDS011;66938;52.084;5.228;2023-02-11T11:51:02;17.41;;;15.2;;
77748;SDS011;66938;52.084;5.228;2023-02-11T11:54:26;19.41;;;14.8;;
77748;SDS011;66938;52.084;5.228;2023-02-11T11:56:08;18.7;;;14.9;;
77748;SDS011;66938;52.084;5.228;2023-02-11T11:57:49;18.11;;;15.1;;
77748;SDS011;66938;52.084;5.228;2023-02-11T11:59:26;17.41;;;14.0;;
77748;SDS011;66938;52.084;5.228;2023-02-11T12:03:03;16.9;;;14.2;;
77748;SDS011;66938;52.084;5.228;2023-02-11T12:06:06;17.8;;;15.1;;
77748;SDS011;66938;52.084;5.228;2023-02-11T12:07:58;16.8;;;14.4;;
77748;SDS011;66938;52.084;5.228;2023-02-11T12:09:51;16.61;;;13.8;;
77748;SDS011;66938;52.084;5.228;2023-02-11T12:11:56;17.11;;;14.2;;
77748;SDS011;66938;52.084;5.228;2023-02-11T12:14:16;19.11;;;15.0;;
77748;SDS011;66938;52.084;5.228;2023-02-11T12:16:04;19.7;;;15.5;;
77748;SDS011;66938;52.084;5.228;2023-02-11T12:17:56;15.5;;;12.6;;
77748;SDS011;66938;52.084;5.228;2023-02-11T12:21:55;13.9;;;10.9;;
77748;SDS011;66938;52.084;5.228;2023-02-11T12:23:44;13.1;;;10.0;;
77748;SDS011;66938;52.084;5.228;2023-02-11T12:25:37;11.8;;;9.6;;
77748;SDS011;66938;52.084;5.228;2023-02-11T12:27:34;12.5;;;9.0;;
77748;SDS011;66938;52.084;5.228;2023-02-11T12:29:25;10.8;;;8.9;;
77748;SDS011;66938;52.084;5.228;2023-02-11T12:31:16;10.21;;;8.81;;
77748;SDS011;66938;52.084;5.228;2023-02-11T12:33:05;14.7;;;10.0;;
77748;SDS011;66938;52.084;5.228;2023-02-11T12:34:59;11.4;;;9.1;;
77748;SDS011;66938;52.084;5.228;2023-02-11T12:37:08;11.9;;;9.4;;
77748;SDS011;66938;52.084;5.228;2023-02-11T12:39:04;11.8;;;8.6;;
77748;SDS011;66938;52.084;5.228;2023-02-11T12:40:53;11.1;;;8.6;;
77748;SDS011;66938;52.084;5.228;2023-02-11T12:45:26;12.0;;;8.5;;
77748;SDS011;66938;52.084;5.228;2023-02-11T12:47:16;11.9;;;8.81;;
77748;SDS011;66938;52.084;5.228;2023-02-11T12:51:12;10.3;;;7.8;;
77748;SDS011;66938;52.084;5.228;2023-02-11T12:53:07;11.2;;;8.31;;